Time;durP1;ratioP1;P1;durP2;ratioP2;P2;SDS_P1;SDS_P2;PMS_P1;PMS_P2;Temp;Humidity;BMP_temperature;BMP_pressure;BME280_temperature;BME280_humidity;BME280_pressure;Samples;Min_cycle;Max_cycle;Signal;HPM_P1;HPM_P2
2022/01/30 00:01:20;;;;;;;28.98;5.40;;;5.60;99.90;;;;;;4976966;28;20050;-70
2022/01/30 00:03:45;;;;;;;26.63;4.90;;;5.70;99.90;;;;;;4976877;28;20116;-69
2022/01/30 00:06:11;;;;;;;31.45;4.93;;;5.70;99.90;;;;;;4960072;28;20051;-70
2022/01/30 00:08:36;;;;;;;29.58;4.30;;;5.70;99.90;;;;;;4976784;28;20039;-70
2022/01/30 00:11:10;;;;;;;39.85;4.88;;;5.70;99.90;;;;;;4976905;28;20387;-70
2022/01/30 00:13:37;;;;;;;28.92;4.68;;;5.70;99.90;;;;;;4976794;28;20061;-68
2022/01/30 00:16:06;;;;;;;32.22;4.47;;;5.70;99.90;;;;;;4976711;28;20042;-71
2022/01/30 00:18:49;;;;;;;35.53;5.47;;;5.70;99.90;;;;;;4976646;28;20046;-69
2022/01/30 00:24:07;;;;;;;29.75;6.13;;;5.70;99.90;;;;;;4976480;28;20434;-70
2022/01/30 00:26:35;;;;;;;33.33;5.38;;;5.80;99.90;;;;;;4976519;28;20448;-69
2022/01/30 00:29:01;;;;;;;34.58;5.47;;;5.90;99.90;;;;;;4984216;28;20063;-69
2022/01/30 00:31:27;;;;;;;38.88;5.72;;;6.00;99.90;;;;;;4976118;28;20460;-71
2022/01/30 00:33:53;;;;;;;35.13;5.50;;;6.10;99.90;;;;;;4976389;28;20054;-69
2022/01/30 00:36:19;;;;;;;38.42;6.25;;;6.10;99.90;;;;;;4976364;28;20063;-69
2022/01/30 00:38:44;;;;;;;31.45;6.15;;;6.20;99.90;;;;;;4959730;28;20066;-70
2022/01/30 00:41:11;;;;;;;33.15;5.47;;;6.20;99.90;;;;;;4976329;28;20475;-69
2022/01/30 00:43:36;;;;;;;29.17;5.10;;;6.20;99.90;;;;;;4976484;28;20069;-69
2022/01/30 00:46:02;;;;;;;40.67;5.35;;;6.20;99.90;;;;;;4959594;28;20451;-69
2022/01/30 00:48:28;;;;;;;20.00;4.00;;;6.20;99.90;;;;;;4976222;28;20049;-69
2022/01/30 00:50:53;;;;;;;24.60;3.90;;;6.00;99.90;;;;;;4976214;28;20051;-70
2022/01/30 00:53:20;;;;;;;15.82;3.47;;;5.70;99.90;;;;;;4959002;28;20395;-68
2022/01/30 00:55:45;;;;;;;22.35;4.07;;;5.60;99.90;;;;;;4976100;28;20046;-68
2022/01/30 00:58:12;;;;;;;33.92;5.30;;;5.50;99.90;;;;;;4986891;28;20126;-68
2022/01/30 01:00:38;;;;;;;28.00;5.05;;;5.30;99.90;;;;;;4978215;28;20073;-69
2022/01/30 01:03:04;;;;;;;27.13;4.95;;;5.20;99.90;;;;;;4994823;28;20042;-69
2022/01/30 01:05:32;;;;;;;32.20;6.05;;;5.20;99.90;;;;;;4978418;28;20042;-68
2022/01/30 01:08:00;;;;;;;31.77;5.28;;;5.20;99.90;;;;;;4978013;28;20218;-68
2022/01/30 01:23:42;;;;;;;36.10;5.30;;;5.10;99.90;;;;;;4995495;28;20124;-70
2022/01/30 01:26:08;;;;;;;27.20;4.50;;;5.10;99.90;;;;;;4995087;28;20054;-68
2022/01/30 01:28:34;;;;;;;31.52;5.07;;;5.10;99.90;;;;;;4978358;28;20061;-69
2022/01/30 01:31:00;;;;;;;27.00;4.57;;;5.10;99.90;;;;;;4976258;28;20047;-69
2022/01/30 01:33:34;;;;;;;34.72;5.80;;;5.10;99.90;;;;;;4961429;28;20058;-68
2022/01/30 01:36:00;;;;;;;29.75;5.15;;;5.10;99.90;;;;;;4962162;28;20063;-70
2022/01/30 01:38:25;;;;;;;34.97;6.22;;;5.10;99.90;;;;;;4962566;28;20066;-70
2022/01/30 01:40:51;;;;;;;37.97;5.85;;;5.20;99.90;;;;;;4962962;28;20054;-69
2022/01/30 01:43:19;;;;;;;31.73;5.78;;;5.30;99.90;;;;;;4962276;28;20047;-69
2022/01/30 01:45:47;;;;;;;39.95;6.38;;;5.30;99.90;;;;;;4962545;28;20149;-69
2022/01/30 01:48:14;;;;;;;41.10;6.47;;;5.30;99.90;;;;;;4962293;28;20085;-70
2022/01/30 01:50:53;;;;;;;36.72;6.15;;;5.70;99.90;;;;;;4962576;28;20051;-70
2022/01/30 01:53:22;;;;;;;44.75;7.05;;;5.30;99.90;;;;;;4979388;28;20368;-68
2022/01/30 01:55:48;;;;;;;31.25;5.57;;;5.40;99.90;;;;;;4962919;28;20123;-68
2022/01/30 01:58:14;;;;;;;38.05;6.60;;;5.30;99.90;;;;;;4975005;28;20046;-69
2022/01/30 02:00:39;;;;;;;28.40;5.53;;;5.30;99.90;;;;;;4981758;28;20124;-70
2022/01/30 02:03:05;;;;;;;28.50;5.00;;;5.20;99.90;;;;;;4981830;28;20458;-70
2022/01/30 02:05:34;;;;;;;36.10;5.63;;;5.20;99.90;;;;;;4998459;28;20044;-69
2022/01/30 02:08:27;;;;;;;33.00;5.68;;;5.20;99.90;;;;;;4998419;28;20089;-70
2022/01/30 02:11:02;;;;;;;34.95;6.15;;;5.10;99.90;;;;;;4981764;28;20054;-69
2022/01/30 02:27:11;;;;;;;41.67;6.40;;;5.40;99.90;;;;;;4980218;28;20062;-70
2022/01/30 02:29:37;;;;;;;44.92;6.82;;;5.50;99.90;;;;;;4998004;28;20050;-69
2022/01/30 02:32:03;;;;;;;43.55;7.40;;;5.50;99.90;;;;;;4981193;28;20483;-70
2022/01/30 02:34:30;;;;;;;36.53;6.53;;;5.60;99.90;;;;;;4998125;28;20065;-69
2022/01/30 02:36:57;;;;;;;35.25;6.18;;;5.60;99.90;;;;;;4997930;28;20058;-70
2022/01/30 02:39:24;;;;;;;34.13;5.68;;;5.60;99.90;;;;;;4980659;28;20461;-70
2022/01/30 02:41:50;;;;;;;38.38;8.20;;;5.50;99.90;;;;;;4997857;28;20078;-68
2022/01/30 02:47:01;;;;;;;30.75;5.75;;;5.50;99.90;;;;;;4998056;28;20160;-70
2022/01/30 02:49:43;;;;;;;26.88;5.28;;;5.50;99.90;;;;;;4980621;28;20046;-70
2022/01/30 02:52:10;;;;;;;34.05;6.75;;;5.50;99.90;;;;;;4980694;28;20057;-68
2022/01/30 02:54:36;;;;;;;37.65;6.50;;;5.40;99.90;;;;;;4998046;28;20046;-70
2022/01/30 02:57:02;;;;;;;36.63;6.38;;;5.40;99.90;;;;;;4974534;28;20500;-69
2022/01/30 02:59:27;;;;;;;37.95;6.72;;;5.40;99.90;;;;;;4978285;28;20049;-69
2022/01/30 03:01:53;;;;;;;36.90;6.47;;;5.50;99.90;;;;;;4961079;28;20051;-70
2022/01/30 03:04:18;;;;;;;37.40;6.47;;;5.50;99.90;;;;;;4961666;28;20082;-68
2022/01/30 03:06:45;;;;;;;49.55;6.78;;;5.40;99.90;;;;;;4961419;28;20055;-70
2022/01/30 03:09:11;;;;;;;46.35;6.75;;;5.40;99.90;;;;;;4960875;28;20065;-69
2022/01/30 03:11:37;;;;;;;39.10;8.25;;;5.40;99.90;;;;;;4961076;28;20093;-70
2022/01/30 03:14:04;;;;;;;39.20;6.28;;;5.40;99.90;;;;;;4960717;28;20097;-69
2022/01/30 03:16:30;;;;;;;46.40;7.22;;;5.40;99.90;;;;;;4960470;28;20046;-69
2022/01/30 03:18:55;;;;;;;37.97;7.85;;;5.40;99.90;;;;;;4978181;28;20359;-68
2022/01/30 03:21:21;;;;;;;53.67;7.70;;;5.40;99.90;;;;;;4961013;28;20054;-71
2022/01/30 03:23:47;;;;;;;38.50;6.85;;;5.40;99.90;;;;;;4960919;28;20050;-70
2022/01/30 03:26:13;;;;;;;50.70;8.15;;;5.50;99.90;;;;;;4978901;28;20383;-69
2022/01/30 03:28:41;;;;;;;43.00;7.32;;;5.50;99.90;;;;;;4997255;28;20042;-70
2022/01/30 03:31:09;;;;;;;41.75;6.90;;;5.50;99.90;;;;;;4979477;28;20050;-70
2022/01/30 03:33:35;;;;;;;33.83;6.22;;;5.50;99.90;;;;;;4978132;28;20109;-69
2022/01/30 03:36:01;;;;;;;42.13;7.07;;;5.60;99.90;;;;;;4960260;28;20058;-69
2022/01/30 03:38:28;;;;;;;43.38;7.85;;;5.60;99.90;;;;;;4977672;28;20461;-69
2022/01/30 03:40:54;;;;;;;39.53;6.78;;;5.70;99.90;;;;;;4977416;28;20160;-69
2022/01/30 03:43:19;;;;;;;39.45;6.82;;;5.70;99.90;;;;;;4977444;28;20103;-69
2022/01/30 03:45:46;;;;;;;33.60;6.22;;;5.70;99.90;;;;;;4977174;28;20137;-70
2022/01/30 03:48:15;;;;;;;38.67;5.72;;;5.70;99.90;;;;;;4960216;28;20046;-69
2022/01/30 03:50:41;;;;;;;37.42;6.85;;;5.80;99.90;;;;;;4977265;28;20050;-70
2022/01/30 03:53:07;;;;;;;37.85;6.78;;;5.90;99.90;;;;;;4977245;28;20054;-69
2022/01/30 03:55:33;;;;;;;40.90;6.93;;;5.90;99.90;;;;;;4975716;28;20061;-69
2022/01/30 03:57:59;;;;;;;38.17;6.40;;;6.00;99.90;;;;;;4974627;28;20129;-70
2022/01/30 04:00:24;;;;;;;38.45;6.40;;;6.00;99.90;;;;;;4996631;28;20053;-70
2022/01/30 04:02:50;;;;;;;44.05;6.45;;;6.00;99.90;;;;;;4979693;28;20129;-70
2022/01/30 04:05:16;;;;;;;39.25;7.13;;;6.00;99.90;;;;;;4963511;28;20082;-70
2022/01/30 04:07:44;;;;;;;46.00;7.00;;;6.10;99.90;;;;;;4963670;28;20567;-69
2022/01/30 04:10:10;;;;;;;36.70;7.20;;;6.00;99.90;;;;;;4979044;28;20064;-69
2022/01/30 04:12:36;;;;;;;44.58;7.80;;;6.10;99.90;;;;;;4979438;28;20050;-68
2022/01/30 04:15:02;;;;;;;44.22;7.05;;;6.10;99.90;;;;;;4996326;28;20415;-70
2022/01/30 04:17:27;;;;;;;53.97;8.45;;;6.00;99.90;;;;;;4995962;28;20472;-69
2022/01/30 04:19:53;;;;;;;33.67;6.82;;;5.90;99.90;;;;;;4996094;28;20125;-70
2022/01/30 04:22:19;;;;;;;44.50;8.02;;;5.80;99.90;;;;;;4979043;28;20046;-70
2022/01/30 04:24:44;;;;;;;51.83;8.85;;;5.70;99.90;;;;;;4978832;28;20058;-69
2022/01/30 04:27:10;;;;;;;62.20;8.60;;;5.70;99.90;;;;;;4984772;28;20058;-69
2022/01/30 04:29:36;;;;;;;51.95;8.57;;;5.60;99.90;;;;;;4959193;28;20047;-70
2022/01/30 04:32:03;;;;;;;48.25;8.27;;;5.50;99.90;;;;;;4976882;28;20415;-71
2022/01/30 04:34:30;;;;;;;56.88;10.55;;;5.50;99.90;;;;;;4959293;28;20047;-70
2022/01/30 04:37:04;;;;;;;46.42;8.80;;;5.50;99.90;;;;;;4958928;28;20109;-69
2022/01/30 04:53:04;;;;;;;47.53;7.53;;;5.70;99.90;;;;;;4974981;28;20046;-69
2022/01/30 05:00:57;;;;;;;36.40;7.55;;;5.60;99.90;;;;;;4995775;28;20411;-70
2022/01/30 05:03:35;;;;;;;56.33;8.32;;;5.70;99.90;;;;;;4995638;28;20120;-68
2022/01/30 05:06:06;;;;;;;55.65;9.77;;;5.70;99.90;;;;;;4996853;28;20452;-70
2022/01/30 05:08:32;;;;;;;50.28;9.15;;;5.70;99.90;;;;;;4983539;28;20058;-69
2022/01/30 05:10:58;;;;;;;50.95;8.43;;;5.70;99.90;;;;;;5002216;28;20050;-69
2022/01/30 05:13:28;;;;;;;54.90;9.57;;;5.70;99.90;;;;;;4984801;28;20062;-69
2022/01/30 05:15:54;;;;;;;57.67;9.48;;;5.70;99.90;;;;;;5000807;28;20464;-69
2022/01/30 05:18:21;;;;;;;54.35;8.88;;;5.70;99.90;;;;;;5001893;28;20042;-70
2022/01/30 05:20:47;;;;;;;54.08;9.30;;;5.70;99.90;;;;;;5001754;28;20042;-71
2022/01/30 05:23:13;;;;;;;50.90;9.82;;;5.80;99.90;;;;;;4985006;28;20372;-70
2022/01/30 05:25:39;;;;;;;57.60;9.15;;;5.80;99.90;;;;;;5001376;28;20042;-70
2022/01/30 05:28:08;;;;;;;51.20;9.05;;;5.80;99.90;;;;;;4984633;28;20050;-69
2022/01/30 05:30:36;;;;;;;49.88;9.07;;;5.80;99.90;;;;;;5001598;28;20129;-69
2022/01/30 05:33:02;;;;;;;44.75;8.65;;;5.80;99.90;;;;;;4984866;28;20046;-69
2022/01/30 05:35:28;;;;;;;37.83;7.40;;;5.70;99.90;;;;;;4984849;28;20137;-69
2022/01/30 05:37:55;;;;;;;51.00;8.40;;;5.70;99.90;;;;;;4984785;28;20061;-70
2022/01/30 05:40:22;;;;;;;49.88;8.02;;;5.70;99.90;;;;;;5001275;28;20050;-70
2022/01/30 05:42:48;;;;;;;42.83;8.00;;;5.60;99.90;;;;;;4984588;28;20459;-69
2022/01/30 05:45:29;;;;;;;52.05;8.27;;;5.60;99.90;;;;;;4984182;28;20130;-69
2022/01/30 05:48:03;;;;;;;50.35;8.75;;;5.50;99.90;;;;;;5001747;28;20086;-69
2022/01/30 05:50:29;;;;;;;58.70;8.23;;;5.50;99.90;;;;;;4984678;28;20061;-70
2022/01/30 05:52:54;;;;;;;54.08;9.63;;;5.50;99.90;;;;;;4984489;28;20137;-70
2022/01/30 05:55:20;;;;;;;52.45;8.68;;;5.50;99.90;;;;;;5001333;28;20134;-70
2022/01/30 05:57:47;;;;;;;49.15;10.07;;;5.60;99.90;;;;;;4983428;28;20082;-69
2022/01/30 06:00:14;;;;;;;52.08;8.60;;;5.70;99.90;;;;;;4965113;28;20126;-69
2022/01/30 06:02:44;;;;;;;62.30;9.70;;;5.60;99.90;;;;;;4982334;28;20113;-70
2022/01/30 06:05:13;;;;;;;58.95;11.32;;;5.70;99.90;;;;;;4982336;28;20050;-69
2022/01/30 06:07:47;;;;;;;44.72;7.70;;;5.70;99.90;;;;;;4982035;28;20051;-68
2022/01/30 06:10:12;;;;;;;53.20;8.95;;;5.70;99.90;;;;;;4981802;28;20122;-68
2022/01/30 06:12:38;;;;;;;45.97;8.18;;;5.70;99.90;;;;;;4981848;28;20082;-68
2022/01/30 06:15:04;;;;;;;51.50;8.23;;;5.60;99.90;;;;;;4982146;28;20039;-69
2022/01/30 06:17:29;;;;;;;54.92;8.60;;;5.50;99.90;;;;;;4982107;28;20050;-69
2022/01/30 06:19:55;;;;;;;50.83;8.25;;;5.40;99.90;;;;;;4961908;28;20494;-69
2022/01/30 06:22:20;;;;;;;52.35;8.40;;;5.30;99.90;;;;;;4961495;28;20051;-70
2022/01/30 06:24:46;;;;;;;63.65;9.88;;;5.20;99.90;;;;;;4962159;28;20078;-68
2022/01/30 06:27:11;;;;;;;45.03;9.13;;;5.20;99.90;;;;;;4976194;28;20501;-69
2022/01/30 06:29:37;;;;;;;50.55;8.52;;;5.20;99.90;;;;;;4998180;28;20473;-69
2022/01/30 06:32:03;;;;;;;61.22;9.73;;;5.20;99.90;;;;;;4998152;28;20038;-69
2022/01/30 06:34:29;;;;;;;49.33;9.50;;;5.30;99.90;;;;;;4980829;28;20383;-68
2022/01/30 06:36:55;;;;;;;56.65;9.23;;;5.30;99.90;;;;;;4998206;28;20061;-68
2022/01/30 06:39:21;;;;;;;58.28;9.63;;;5.30;99.90;;;;;;4998516;28;20391;-69
2022/01/30 06:41:46;;;;;;;64.65;10.68;;;5.40;99.90;;;;;;4981524;28;20122;-69
2022/01/30 06:44:12;;;;;;;45.75;8.75;;;5.40;99.90;;;;;;4980824;28;20050;-68
2022/01/30 06:46:38;;;;;;;50.97;9.55;;;5.40;99.90;;;;;;4997877;28;20050;-69
2022/01/30 06:49:04;;;;;;;55.97;9.15;;;5.40;99.90;;;;;;4998208;28;20034;-68
2022/01/30 06:51:29;;;;;;;43.50;9.32;;;5.40;99.90;;;;;;4997704;28;20106;-68
2022/01/30 06:53:55;;;;;;;55.33;9.70;;;5.50;99.90;;;;;;4997740;28;20129;-70
2022/01/30 06:56:20;;;;;;;52.60;8.88;;;5.50;99.90;;;;;;4959100;28;20050;-69
2022/01/30 06:58:46;;;;;;;50.55;8.27;;;5.60;99.90;;;;;;4977989;28;20081;-68
2022/01/30 07:01:12;;;;;;;39.17;8.57;;;5.60;99.90;;;;;;4978389;28;20050;-69
2022/01/30 07:03:37;;;;;;;41.47;7.55;;;5.60;99.90;;;;;;4978067;28;20050;-67
2022/01/30 07:06:03;;;;;;;45.70;8.73;;;5.60;99.90;;;;;;4977940;28;20051;-68
2022/01/30 07:08:28;;;;;;;62.40;8.02;;;5.70;99.90;;;;;;4978098;28;20129;-69
2022/01/30 07:10:54;;;;;;;46.95;8.27;;;5.80;99.90;;;;;;4945063;28;20054;-68
2022/01/30 07:13:19;;;;;;;42.40;8.02;;;5.80;99.90;;;;;;4977950;28;20371;-70
2022/01/30 07:15:45;;;;;;;47.92;10.13;;;5.80;99.90;;;;;;4977924;28;20059;-68
2022/01/30 07:18:10;;;;;;;61.30;10.65;;;5.80;99.90;;;;;;4961148;28;20061;-67
2022/01/30 07:20:37;;;;;;;51.33;9.57;;;5.80;99.90;;;;;;4966087;28;20057;-67
2022/01/30 07:23:02;;;;;;;40.55;7.40;;;5.80;99.90;;;;;;4979149;28;20061;-67
2022/01/30 07:25:28;;;;;;;57.38;9.80;;;5.70;99.90;;;;;;4980369;28;20046;-68
2022/01/30 07:27:53;;;;;;;52.38;9.00;;;5.80;99.90;;;;;;4997202;28;20060;-68
2022/01/30 07:30:19;;;;;;;58.53;10.20;;;5.80;99.90;;;;;;4979368;28;20061;-69
2022/01/30 07:32:44;;;;;;;53.42;8.90;;;5.80;99.90;;;;;;4979947;28;20046;-67
2022/01/30 07:35:10;;;;;;;47.45;8.60;;;5.80;99.90;;;;;;4996563;28;20050;-68
2022/01/30 07:37:35;;;;;;;42.25;8.68;;;5.80;99.90;;;;;;4980064;28;20140;-68
2022/01/30 07:40:04;;;;;;;47.53;8.40;;;5.80;99.90;;;;;;4980009;28;20046;-69
2022/01/30 07:42:29;;;;;;;53.00;9.07;;;5.90;99.90;;;;;;4997169;28;20358;-68
2022/01/30 07:44:55;;;;;;;55.53;7.97;;;5.90;99.90;;;;;;4996705;28;20050;-68
2022/01/30 07:47:22;;;;;;;30.40;7.13;;;5.80;99.90;;;;;;4996661;28;20090;-68
2022/01/30 07:49:51;;;;;;;40.83;7.45;;;5.90;99.90;;;;;;4981013;28;20058;-70
2022/01/30 07:52:21;;;;;;;37.65;7.47;;;5.90;99.90;;;;;;4985865;28;20120;-66
2022/01/30 07:54:47;;;;;;;41.00;6.90;;;5.90;99.90;;;;;;4929449;29;20057;-68
2022/01/30 07:57:14;;;;;;;44.95;6.70;;;5.90;99.90;;;;;;4927869;29;20131;-67
2022/01/30 07:59:40;;;;;;;38.85;7.07;;;5.90;99.90;;;;;;4892367;29;20473;-69
2022/01/30 08:02:06;;;;;;;43.88;7.57;;;5.90;99.90;;;;;;4917444;29;20381;-70
2022/01/30 08:04:32;;;;;;;39.78;8.05;;;5.90;99.90;;;;;;4926537;29;20071;-70
2022/01/30 08:06:57;;;;;;;38.92;7.25;;;5.80;99.90;;;;;;4908598;29;20553;-67
2022/01/30 08:09:23;;;;;;;40.67;6.55;;;5.80;99.90;;;;;;4925571;29;20063;-68
2022/01/30 08:11:48;;;;;;;31.77;7.28;;;5.80;99.90;;;;;;4914857;29;20058;-69
2022/01/30 08:14:14;;;;;;;43.80;8.25;;;5.70;99.90;;;;;;4902668;29;20094;-68
2022/01/30 08:16:40;;;;;;;44.40;8.07;;;5.80;99.90;;;;;;4898062;29;20501;-68
2022/01/30 08:19:05;;;;;;;51.55;8.32;;;5.80;99.90;;;;;;4907369;29;20130;-67
2022/01/30 08:21:31;;;;;;;41.85;7.32;;;5.90;99.90;;;;;;4907403;29;20057;-69
2022/01/30 08:23:57;;;;;;;42.25;7.10;;;5.90;99.90;;;;;;4904944;29;20060;-68
2022/01/30 08:26:23;;;;;;;41.67;7.25;;;5.90;99.90;;;;;;4990733;28;20383;-68
2022/01/30 08:28:48;;;;;;;44.88;8.82;;;5.90;99.90;;;;;;4979497;28;20127;-67
2022/01/30 08:31:14;;;;;;;49.90;7.82;;;5.90;99.90;;;;;;5011554;28;20522;-68
2022/01/30 08:33:39;;;;;;;50.75;7.60;;;6.00;99.90;;;;;;4995690;28;20047;-68
2022/01/30 08:36:06;;;;;;;39.83;7.38;;;6.00;99.90;;;;;;4978434;28;20129;-67
2022/01/30 08:38:31;;;;;;;40.58;7.47;;;6.00;99.90;;;;;;4978099;28;20105;-68
2022/01/30 08:40:57;;;;;;;44.90;8.15;;;6.00;99.90;;;;;;4995849;28;20050;-68
2022/01/30 08:43:23;;;;;;;44.38;8.13;;;6.00;99.90;;;;;;5013594;28;20139;-69
2022/01/30 08:45:50;;;;;;;54.50;9.32;;;6.00;99.90;;;;;;5015464;28;20124;-68
2022/01/30 08:48:16;;;;;;;49.35;9.30;;;5.90;99.90;;;;;;5015439;28;20123;-68
2022/01/30 08:50:43;;;;;;;48.33;8.95;;;5.90;99.90;;;;;;5015125;28;20459;-68
2022/01/30 08:53:08;;;;;;;54.30;8.35;;;5.90;99.90;;;;;;5015660;28;20446;-68
2022/01/30 08:55:34;;;;;;;41.72;7.30;;;6.00;99.90;;;;;;4981877;28;20077;-67
2022/01/30 08:58:07;;;;;;;47.40;8.88;;;6.10;99.90;;;;;;4998038;28;20332;-68
2022/01/30 09:00:35;;;;;;;55.60;9.38;;;6.10;99.90;;;;;;4982466;28;20043;-69
2022/01/30 09:03:03;;;;;;;45.65;7.72;;;6.20;99.90;;;;;;5004579;28;20088;-67
2022/01/30 09:05:29;;;;;;;53.10;7.88;;;6.20;99.90;;;;;;4984129;28;20081;-70
2022/01/30 09:07:56;;;;;;;50.00;8.63;;;6.30;99.90;;;;;;5010867;28;20489;-67
2022/01/30 09:10:21;;;;;;;49.97;8.15;;;6.30;99.90;;;;;;4995320;28;20132;-68
2022/01/30 09:12:47;;;;;;;41.05;7.53;;;6.30;99.90;;;;;;4993963;28;20510;-68
2022/01/30 09:15:15;;;;;;;52.92;8.63;;;6.20;99.90;;;;;;4994724;28;20462;-70
2022/01/30 09:17:41;;;;;;;43.95;7.65;;;6.10;99.90;;;;;;4995676;28;20054;-67
2022/01/30 09:20:07;;;;;;;49.72;8.07;;;6.10;99.90;;;;;;5007514;28;20493;-69
2022/01/30 09:22:33;;;;;;;46.60;7.85;;;6.00;99.90;;;;;;5008333;28;20038;-68
2022/01/30 09:24:59;;;;;;;41.08;9.20;;;6.10;99.90;;;;;;5015040;28;20050;-68
2022/01/30 09:27:24;;;;;;;60.17;9.07;;;6.20;99.90;;;;;;5015100;28;20358;-68
2022/01/30 09:29:50;;;;;;;44.85;9.23;;;6.20;99.90;;;;;;4985752;28;20038;-67
2022/01/30 09:32:17;;;;;;;46.53;7.70;;;6.30;99.90;;;;;;4994234;28;20396;-69
2022/01/30 09:34:43;;;;;;;54.58;9.45;;;6.50;99.90;;;;;;4994977;28;20050;-68
2022/01/30 09:37:09;;;;;;;51.25;8.73;;;6.40;99.90;;;;;;4977970;28;20118;-69
2022/01/30 09:39:36;;;;;;;50.33;9.48;;;6.30;99.90;;;;;;4977983;28;20058;-68
2022/01/30 09:42:03;;;;;;;50.75;7.72;;;6.40;99.90;;;;;;4977822;28;20057;-67
2022/01/30 09:44:29;;;;;;;48.88;7.25;;;6.40;99.90;;;;;;4995197;28;20039;-68
2022/01/30 09:46:55;;;;;;;42.03;7.38;;;6.40;99.90;;;;;;4994108;28;20058;-68
2022/01/30 09:49:24;;;;;;;45.42;7.18;;;6.40;99.90;;;;;;4994980;28;20097;-68
2022/01/30 09:51:50;;;;;;;37.92;7.30;;;6.50;99.90;;;;;;4994972;28;20061;-68
2022/01/30 09:54:16;;;;;;;45.72;7.88;;;6.50;99.90;;;;;;4995962;28;20042;-67
2022/01/30 09:56:42;;;;;;;39.95;7.68;;;6.80;99.90;;;;;;4998963;28;20410;-68
2022/01/30 09:59:08;;;;;;;45.58;6.30;;;6.80;99.90;;;;;;4992181;28;20502;-69
2022/01/30 10:01:37;;;;;;;40.45;6.70;;;6.80;99.90;;;;;;4979168;28;20062;-67
2022/01/30 10:04:04;;;;;;;44.38;6.07;;;6.80;99.90;;;;;;4978927;28;20477;-68
2022/01/30 10:06:35;;;;;;;36.30;7.75;;;6.80;99.90;;;;;;4991523;28;20056;-68
2022/01/30 10:09:26;;;;;;;45.50;8.45;;;6.80;99.90;;;;;;4986132;28;20065;-67
2022/01/30 10:12:01;;;;;;;45.25;7.53;;;6.90;99.90;;;;;;4996409;28;20057;-69
2022/01/30 10:14:27;;;;;;;47.08;7.60;;;6.90;99.90;;;;;;4976043;28;21022;-67
2022/01/30 10:16:53;;;;;;;37.25;7.70;;;7.00;99.90;;;;;;4997785;28;20050;-68
2022/01/30 10:19:20;;;;;;;38.58;8.63;;;7.00;99.90;;;;;;4993815;28;20074;-68
2022/01/30 10:21:47;;;;;;;47.05;7.50;;;7.00;99.90;;;;;;4998381;28;20054;-67
2022/01/30 10:24:26;;;;;;;35.72;6.47;;;6.90;99.90;;;;;;4998027;28;20081;-69
2022/01/30 10:26:53;;;;;;;43.88;8.63;;;6.80;99.90;;;;;;4998073;28;20100;-69
2022/01/30 10:29:30;;;;;;;40.05;8.45;;;6.80;99.90;;;;;;4980958;28;20534;-68
2022/01/30 10:32:01;;;;;;;35.47;7.63;;;6.80;99.90;;;;;;4998143;28;20121;-68
2022/01/30 10:34:27;;;;;;;38.03;6.95;;;6.90;99.90;;;;;;4980895;28;20050;-69
2022/01/30 10:37:19;;;;;;;34.72;7.88;;;6.80;99.90;;;;;;4983411;28;20138;-69
2022/01/30 10:39:55;;;;;;;46.03;7.90;;;6.90;99.90;;;;;;4981038;28;20042;-68
2022/01/30 10:42:30;;;;;;;42.60;7.88;;;7.10;99.90;;;;;;4980785;28;20120;-68
2022/01/30 10:44:56;;;;;;;44.17;7.47;;;7.20;99.90;;;;;;4980517;28;20509;-68
2022/01/30 10:47:22;;;;;;;50.25;8.38;;;7.20;99.90;;;;;;4980233;28;20145;-68
2022/01/30 10:49:48;;;;;;;44.42;9.45;;;7.20;99.90;;;;;;4997591;28;20046;-67
2022/01/30 10:52:14;;;;;;;39.58;8.95;;;7.20;99.90;;;;;;4997707;28;20046;-68
2022/01/30 10:54:40;;;;;;;45.20;9.07;;;7.20;99.90;;;;;;4997743;28;20057;-70
2022/01/30 10:57:06;;;;;;;65.47;9.13;;;7.10;99.90;;;;;;4980726;28;20058;-69
2022/01/30 10:59:32;;;;;;;46.83;9.00;;;7.10;99.90;;;;;;4997447;28;20058;-67
2022/01/30 11:02:14;;;;;;;44.70;8.65;;;7.00;99.90;;;;;;4980189;28;20081;-67
2022/01/30 11:04:40;;;;;;;43.00;7.85;;;7.00;99.90;;;;;;4979790;28;20101;-68
2022/01/30 11:07:06;;;;;;;43.78;7.50;;;7.00;99.90;;;;;;4992737;28;20067;-68
2022/01/30 11:09:37;;;;;;;38.85;8.05;;;7.00;99.90;;;;;;4961191;28;20050;-68
2022/01/30 11:12:07;;;;;;;36.47;7.20;;;7.00;99.90;;;;;;4960932;28;20050;-67
2022/01/30 11:14:38;;;;;;;35.95;7.57;;;7.00;99.90;;;;;;4977532;28;20495;-68
2022/01/30 11:17:07;;;;;;;44.50;7.72;;;7.10;99.90;;;;;;4960805;28;20046;-68
2022/01/30 11:19:37;;;;;;;41.92;6.97;;;7.00;99.90;;;;;;4977973;28;20073;-69
2022/01/30 11:22:07;;;;;;;38.53;7.53;;;7.10;99.90;;;;;;4992494;28;20061;-68
2022/01/30 11:24:59;;;;;;;41.42;7.35;;;7.10;99.90;;;;;;4979659;28;20061;-68
2022/01/30 11:27:24;;;;;;;42.50;7.22;;;7.00;99.90;;;;;;4995316;28;20069;-68
2022/01/30 11:29:51;;;;;;;38.92;7.65;;;7.00;99.90;;;;;;4963970;28;20363;-66
2022/01/30 11:32:21;;;;;;;42.08;7.68;;;7.20;99.90;;;;;;4997095;28;20050;-68
2022/01/30 11:34:47;;;;;;;42.53;6.50;;;7.00;99.90;;;;;;4981114;28;20069;-69
2022/01/30 11:37:16;;;;;;;34.10;6.68;;;7.10;99.90;;;;;;4996858;28;20467;-69
2022/01/30 11:39:47;;;;;;;48.15;7.68;;;7.20;99.90;;;;;;4979367;28;20042;-67
2022/01/30 11:42:26;;;;;;;38.58;7.00;;;7.20;99.90;;;;;;4979597;28;20046;-67
2022/01/30 11:45:03;;;;;;;39.97;7.57;;;7.30;99.90;;;;;;4974209;28;20054;-67
2022/01/30 11:47:42;;;;;;;38.88;7.28;;;7.30;99.90;;;;;;4986018;28;20134;-68
2022/01/30 11:50:07;;;;;;;35.42;6.53;;;7.30;99.90;;;;;;4997963;28;20050;-69
2022/01/30 11:52:45;;;;;;;47.35;7.63;;;7.30;99.90;;;;;;4996788;28;20061;-72
2022/01/30 11:55:37;;;;;;;45.03;8.40;;;7.20;99.90;;;;;;4995120;28;20065;-70
2022/01/30 11:58:03;;;;;;;42.45;7.00;;;7.20;99.90;;;;;;4978403;28;20132;-69
2022/01/30 12:00:37;;;;;;;45.10;7.28;;;7.20;99.90;;;;;;4979133;28;20046;-69
2022/01/30 12:03:23;;;;;;;37.72;6.45;;;7.20;99.90;;;;;;4996263;28;20461;-69
2022/01/30 12:05:50;;;;;;;44.83;8.00;;;7.20;99.90;;;;;;4978765;28;20053;-70
2022/01/30 12:08:49;;;;;;;49.28;8.30;;;7.20;99.90;;;;;;4996155;28;20058;-68
2022/01/30 12:11:36;;;;;;;43.72;6.57;;;7.30;99.90;;;;;;4992552;28;20097;-70
2022/01/30 12:14:51;;;;;;;36.28;7.75;;;7.30;99.90;;;;;;4996210;28;20393;-70
2022/01/30 12:17:44;;;;;;;41.72;7.97;;;7.40;99.90;;;;;;4977843;28;20061;-70
2022/01/30 12:20:09;;;;;;;39.30;6.55;;;7.50;99.90;;;;;;4995912;28;20171;-70
2022/01/30 12:22:35;;;;;;;46.90;8.25;;;7.50;99.90;;;;;;4978672;28;20074;-70
2022/01/30 12:25:21;;;;;;;46.53;7.95;;;7.50;99.90;;;;;;4978774;28;20057;-69
2022/01/30 12:27:48;;;;;;;44.97;8.25;;;7.50;99.90;;;;;;4996208;28;20054;-69
2022/01/30 12:30:34;;;;;;;50.38;7.30;;;7.50;99.90;;;;;;4978807;28;20050;-69
2022/01/30 12:33:01;;;;;;;38.97;7.43;;;7.50;99.90;;;;;;4995858;28;20054;-70
2022/01/30 12:35:28;;;;;;;48.75;7.40;;;7.60;99.90;;;;;;4995735;28;20387;-70
2022/01/30 12:37:54;;;;;;;41.85;7.72;;;7.80;99.90;;;;;;4978303;28;20137;-69
2022/01/30 12:40:20;;;;;;;43.58;8.25;;;7.90;99.90;;;;;;4995627;28;20122;-69
2022/01/30 12:42:46;;;;;;;45.80;7.60;;;7.90;99.90;;;;;;4978720;28;20053;-70
2022/01/30 12:45:14;;;;;;;43.95;7.80;;;7.80;99.90;;;;;;4995388;28;20042;-71
2022/01/30 12:47:59;;;;;;;44.30;7.38;;;7.70;99.90;;;;;;4995745;28;20050;-68
2022/01/30 12:50:31;;;;;;;39.65;7.10;;;7.70;99.90;;;;;;4995223;28;20105;-70
2022/01/30 12:52:56;;;;;;;44.00;7.35;;;7.60;99.90;;;;;;4995478;28;20050;-69
2022/01/30 12:55:23;;;;;;;45.65;7.15;;;7.50;99.90;;;;;;4994258;28;20050;-68
2022/01/30 12:57:53;;;;;;;47.03;7.57;;;7.40;99.90;;;;;;4970849;28;20097;-69
2022/01/30 13:00:19;;;;;;;38.92;7.00;;;7.30;99.90;;;;;;4995106;28;20068;-70
2022/01/30 13:03:01;;;;;;;35.53;6.88;;;7.10;99.90;;;;;;5014078;28;20046;-69
2022/01/30 13:05:29;;;;;;;37.55;7.55;;;7.00;99.90;;;;;;5014798;28;20089;-68
2022/01/30 13:07:56;;;;;;;39.88;7.13;;;7.00;99.90;;;;;;4997244;28;20054;-68
2022/01/30 13:10:23;;;;;;;44.67;7.47;;;6.90;99.90;;;;;;4997249;28;20046;-70
2022/01/30 13:12:50;;;;;;;40.30;6.82;;;6.90;99.90;;;;;;5007330;28;20049;-68
2022/01/30 13:15:18;;;;;;;38.35;6.88;;;7.00;99.90;;;;;;4977195;28;20042;-69
2022/01/30 13:17:45;;;;;;;36.70;6.50;;;7.00;99.90;;;;;;4994469;28;20042;-69
2022/01/30 13:20:12;;;;;;;33.25;6.45;;;7.10;99.90;;;;;;4975780;28;20126;-71
2022/01/30 13:22:41;;;;;;;35.03;6.70;;;7.10;99.90;;;;;;4993597;28;20065;-69
2022/01/30 13:25:09;;;;;;;33.05;6.47;;;7.20;99.90;;;;;;4992780;28;20050;-69
2022/01/30 13:27:40;;;;;;;38.38;6.70;;;7.20;99.90;;;;;;4997087;28;20128;-69
2022/01/30 13:30:07;;;;;;;33.45;6.72;;;7.10;99.90;;;;;;5017912;28;20390;-71
2022/01/30 13:32:37;;;;;;;33.75;5.90;;;7.00;99.90;;;;;;5018390;28;20053;-69
2022/01/30 13:35:13;;;;;;;35.03;7.50;;;6.90;99.90;;;;;;5017993;28;20045;-68
2022/01/30 13:37:41;;;;;;;35.15;5.78;;;6.80;99.90;;;;;;5018010;28;20069;-67
2022/01/30 13:40:17;;;;;;;35.53;6.07;;;6.70;99.90;;;;;;5017138;28;20113;-68
2022/01/30 13:48:04;;;;;;;37.33;6.38;;;6.80;99.90;;;;;;4997872;28;20050;-67